Terminal Aerodrome Forecast
Issued by NWS

Home | Current Version | Previous Version | Text Only | Print | Product List | Glossary On
Versions: 1 2 3 4 5 6 7 8 9 10
243
FTUS42 TJSJ 230543
TAFNCM
TAF
TNCM 230543Z 2306/2406 08009KT P6SM FEW024
     FM231400 11016KT P6SM VCSH SCT022
     FM232300 09008KT P6SM VCSH SCT020 BKN040=

USA.gov is the U.S. government's official web portal to all federal, state and local government web resources and services.